createdAt,value
2023-04-15T00:03:58.797Z,4
2023-04-15T00:08:58.893Z,4
2023-04-15T00:13:58.615Z,4
2023-04-15T00:18:58.790Z,4
2023-04-15T00:23:58.638Z,4.06
2023-04-15T00:28:58.768Z,4.12
2023-04-15T00:33:58.618Z,4.12
2023-04-15T00:38:59.062Z,4.12
2023-04-15T00:43:58.620Z,4.12
2023-04-15T00:48:58.766Z,4.12
2023-04-15T00:53:58.706Z,4.25
2023-04-15T00:58:58.741Z,4.43
2023-04-15T01:08:59.051Z,4.43
2023-04-15T01:13:58.592Z,4.43
2023-04-15T01:18:58.869Z,4.43
2023-04-15T01:23:58.594Z,4.43
2023-04-15T01:28:58.708Z,4.37
2023-04-15T01:33:58.579Z,4.43
2023-04-15T01:38:58.670Z,4.43
2023-04-15T01:43:58.594Z,4.43
2023-04-15T01:48:58.815Z,4.5
2023-04-15T01:53:58.592Z,4.43
2023-04-15T01:58:58.842Z,4.43
2023-04-15T02:03:58.578Z,4.43
2023-04-15T02:08:58.653Z,4.5
2023-04-15T02:13:58.571Z,4.5
2023-04-15T02:18:58.754Z,4.5
2023-04-15T02:23:58.557Z,4.5
2023-04-15T02:28:58.672Z,4.43
2023-04-15T02:33:58.530Z,4.43
2023-04-15T02:38:58.571Z,4.43
2023-04-15T02:43:58.534Z,4.43
2023-04-15T02:53:58.538Z,4.43
2023-04-15T02:58:58.499Z,4.43
2023-04-15T03:03:58.572Z,4.56
2023-04-15T03:08:58.514Z,4.56
2023-04-15T03:13:58.530Z,4.56
2023-04-15T03:18:58.599Z,4.56
2023-04-15T03:23:58.541Z,4.5
2023-04-15T03:28:58.554Z,4.5
2023-04-15T03:33:58.501Z,4.43
2023-04-15T03:38:58.637Z,4.5
2023-04-15T03:43:58.498Z,4.5
2023-04-15T03:48:58.499Z,4.5
2023-04-15T03:53:58.477Z,4.43
2023-04-15T03:58:58.830Z,4.43
2023-04-15T04:03:58.521Z,4.43
2023-04-15T04:08:58.464Z,4.5
2023-04-15T04:13:58.488Z,4.5
2023-04-15T04:18:58.465Z,4.43
2023-04-15T04:23:58.472Z,4.37
2023-04-15T04:28:58.522Z,4.37
2023-04-15T04:33:58.488Z,4.37
2023-04-15T04:38:58.487Z,4.31
2023-04-15T04:43:58.485Z,4.37
2023-04-15T04:48:58.441Z,4.43
2023-04-15T04:53:58.420Z,4.43
2023-04-15T04:58:58.441Z,4.43
2023-04-15T05:03:58.480Z,4.5
2023-04-15T05:08:58.429Z,4.56
2023-04-15T05:13:58.412Z,4.5
2023-04-15T05:18:58.556Z,4.5
2023-04-15T05:23:58.434Z,4.56
2023-04-15T05:28:58.465Z,4.62
2023-04-15T08:18:58.290Z,7.18
2023-04-15T08:33:58.250Z,6.5
2023-04-15T08:38:58.259Z,6.5
2023-04-15T08:43:58.280Z,6.68
2023-04-15T08:48:58.261Z,6.75
2023-04-15T08:53:58.263Z,7
2023-04-15T08:58:58.357Z,7.12
2023-04-15T09:03:58.252Z,6.81
2023-04-15T09:08:58.249Z,7.12
2023-04-15T09:13:58.244Z,7
2023-04-15T09:18:58.226Z,7.06
2023-04-15T09:23:58.306Z,7
2023-04-15T09:28:58.239Z,6.62
2023-04-15T09:33:58.207Z,6.56
2023-04-15T09:38:58.221Z,6.56
2023-04-15T09:43:58.220Z,6.87
2023-04-15T09:48:58.197Z,7.12
2023-04-15T09:53:58.194Z,7.12
2023-04-15T09:58:58.189Z,7
2023-04-15T10:03:58.268Z,7.18
2023-04-15T10:08:58.198Z,7.5
2023-04-15T10:13:58.185Z,7.5
2023-04-15T10:18:58.176Z,7.31
2023-04-15T10:23:58.190Z,7.43
2023-04-15T10:28:59.592Z,7.37
2023-04-15T10:33:58.243Z,7.62
2023-04-15T10:38:58.165Z,7.31
2023-04-15T10:43:58.206Z,7.18
2023-04-15T10:48:58.239Z,7.43
2023-04-15T10:53:58.165Z,7.18
2023-04-15T10:58:58.189Z,7.06
2023-04-15T11:03:58.231Z,6.87
2023-04-15T11:08:58.228Z,6.81
2023-04-15T11:13:58.245Z,7.18
2023-04-15T11:18:58.187Z,6.62
2023-04-15T11:23:58.130Z,6.81
2023-04-15T11:28:58.130Z,7.06
2023-04-15T11:33:58.244Z,7.12
2023-04-15T11:38:58.233Z,7.12
2023-04-15T11:43:58.413Z,7.06
2023-04-15T11:48:58.211Z,7.06
2023-04-15T11:53:58.195Z,7.43
2023-04-15T11:58:58.195Z,7.75
2023-04-15T12:03:58.249Z,7.37
2023-04-15T12:08:58.155Z,7.43
2023-04-15T12:13:58.599Z,7.62
2023-04-15T12:23:58.066Z,7.37
2023-04-15T12:28:58.054Z,7.68
2023-04-15T12:33:58.056Z,7.68
2023-04-15T12:38:58.035Z,7.81
2023-04-15T12:43:58.222Z,7.31
2023-04-15T12:48:58.056Z,7.37
2023-04-15T12:53:58.193Z,7.62
2023-04-15T12:58:58.024Z,7.43
2023-04-15T13:03:58.331Z,7.5
2023-04-15T13:08:58.880Z,7.25
2023-04-15T13:13:58.124Z,7.43
2023-04-15T13:18:58.042Z,7.37
2023-04-15T13:23:58.012Z,7.18
2023-04-15T13:28:58.004Z,7
2023-04-15T13:33:58.061Z,7.06
2023-04-15T13:38:58.167Z,7.12
2023-04-15T13:43:58.060Z,7.25
2023-04-15T13:48:57.992Z,7.81
2023-04-15T13:53:58.139Z,7.68
2023-04-15T13:58:58.093Z,7.5
2023-04-15T14:03:58.243Z,7.87
2023-04-15T14:08:58.116Z,7.43
2023-04-15T14:13:59.887Z,7.5
2023-04-15T14:18:57.942Z,7.06
2023-04-15T14:23:57.942Z,7.25
2023-04-15T14:28:58.486Z,7
2023-04-15T14:33:59.357Z,7.18
2023-04-15T14:38:57.934Z,7.31
2023-04-15T14:43:57.911Z,7.25
2023-04-15T14:48:57.935Z,7
2023-04-15T14:53:57.914Z,6.87
2023-04-15T14:58:57.901Z,6.81
2023-04-15T15:03:57.959Z,6.68
2023-04-15T15:08:57.913Z,6.62
2023-04-15T15:13:57.927Z,6.18
2023-04-15T15:18:57.869Z,6.25
2023-04-15T15:23:57.887Z,6.5
2023-04-15T15:28:57.879Z,6.56
2023-04-15T15:33:57.872Z,6.5
2023-04-15T15:38:58.543Z,6.81
2023-04-15T15:43:57.929Z,6.81
2023-04-15T15:48:57.883Z,6.68
2023-04-15T15:53:57.865Z,6.62
2023-04-15T15:58:57.854Z,6.68
2023-04-15T16:03:57.885Z,6.62
2023-04-15T16:08:57.835Z,6.56
2023-04-15T16:13:57.828Z,6.5
2023-04-15T16:18:57.862Z,6.18
2023-04-15T17:28:57.778Z,5.56
2023-04-15T17:34:02.129Z,5.5
2023-04-15T17:38:57.802Z,5.37
2023-04-15T17:43:57.793Z,5.43
2023-04-15T17:48:57.806Z,5.25
2023-04-15T17:53:57.778Z,5.25
2023-04-15T17:58:57.784Z,5.25
2023-04-15T18:03:57.836Z,5.12
2023-04-15T18:08:57.767Z,5.06
2023-04-15T18:13:57.750Z,5
2023-04-15T18:18:57.747Z,5.06
2023-04-15T18:23:57.757Z,4.93
2023-04-15T18:28:57.731Z,4.87
2023-04-15T18:33:57.742Z,4.87
2023-04-15T18:38:57.715Z,4.87
2023-04-15T18:43:57.720Z,4.93
2023-04-15T18:48:57.740Z,4.81
2023-04-15T18:53:57.724Z,4.87
2023-04-15T18:59:09.057Z,4.81
2023-04-15T19:03:57.726Z,4.81
2023-04-15T19:08:57.702Z,4.81
2023-04-15T19:13:57.710Z,4.87
2023-04-15T19:18:57.705Z,4.75
2023-04-15T19:23:57.716Z,4.75
2023-04-15T19:28:57.697Z,4.75
2023-04-15T19:33:57.707Z,4.68
2023-04-15T19:38:57.693Z,4.68
2023-04-15T19:43:57.672Z,4.75
2023-04-15T19:48:57.664Z,4.68
2023-04-15T19:53:57.684Z,4.68
2023-04-15T19:58:57.676Z,4.62
2023-04-15T20:03:57.796Z,4.75
2023-04-15T23:04:02.273Z,4.68
2023-04-15T23:08:57.544Z,4.62
2023-04-15T23:13:57.550Z,4.68
2023-04-15T23:18:57.556Z,4.62
2023-04-15T23:23:57.522Z,4.68
2023-04-15T23:28:57.546Z,4.75
2023-04-15T23:33:57.512Z,4.75
2023-04-15T23:38:57.504Z,4.68
2023-04-15T23:43:57.519Z,4.62
2023-04-15T23:48:57.509Z,4.56
2023-04-15T23:53:57.506Z,4.5
2023-04-15T23:58:57.488Z,4.37
